sensor_id;sensor_type;location;lat;lon;timestamp;P1;durP1;ratioP1;P2;durP2;ratioP2
52368;SDS011;38298;50.346;3.526;2024-02-21T00:00:49;23.83;;;6.63;;
52368;SDS011;38298;50.346;3.526;2024-02-21T00:03:16;21.13;;;6.60;;
52368;SDS011;38298;50.346;3.526;2024-02-21T00:05:42;22.90;;;5.95;;
52368;SDS011;38298;50.346;3.526;2024-02-21T00:08:08;25.33;;;6.68;;
52368;SDS011;38298;50.346;3.526;2024-02-21T00:10:34;24.48;;;6.50;;
52368;SDS011;38298;50.346;3.526;2024-02-21T00:13:00;18.65;;;5.53;;
52368;SDS011;38298;50.346;3.526;2024-02-21T00:15:26;25.40;;;6.72;;
52368;SDS011;38298;50.346;3.526;2024-02-21T00:17:52;21.95;;;5.95;;
52368;SDS011;38298;50.346;3.526;2024-02-21T00:20:18;18.58;;;5.90;;
52368;SDS011;38298;50.346;3.526;2024-02-21T00:22:45;25.83;;;6.97;;
52368;SDS011;38298;50.346;3.526;2024-02-21T00:25:11;23.77;;;5.47;;
52368;SDS011;38298;50.346;3.526;2024-02-21T00:27:37;21.60;;;6.00;;
52368;SDS011;38298;50.346;3.526;2024-02-21T00:30:04;29.55;;;6.18;;
52368;SDS011;38298;50.346;3.526;2024-02-21T00:32:30;15.52;;;5.22;;
52368;SDS011;38298;50.346;3.526;2024-02-21T00:34:59;15.50;;;5.20;;
52368;SDS011;38298;50.346;3.526;2024-02-21T00:37:25;12.48;;;5.10;;
52368;SDS011;38298;50.346;3.526;2024-02-21T00:39:51;20.45;;;6.25;;
52368;SDS011;38298;50.346;3.526;2024-02-21T00:42:17;16.40;;;5.88;;
52368;SDS011;38298;50.346;3.526;2024-02-21T00:44:43;16.40;;;5.40;;
52368;SDS011;38298;50.346;3.526;2024-02-21T00:47:10;18.48;;;5.55;;
52368;SDS011;38298;50.346;3.526;2024-02-21T00:49:36;22.48;;;5.43;;
52368;SDS011;38298;50.346;3.526;2024-02-21T00:52:02;18.60;;;5.40;;
52368;SDS011;38298;50.346;3.526;2024-02-21T00:54:28;20.20;;;5.60;;
52368;SDS011;38298;50.346;3.526;2024-02-21T00:56:54;19.48;;;5.50;;
52368;SDS011;38298;50.346;3.526;2024-02-21T00:59:20;22.77;;;6.72;;
52368;SDS011;38298;50.346;3.526;2024-02-21T01:01:46;19.67;;;6.53;;
52368;SDS011;38298;50.346;3.526;2024-02-21T01:04:12;22.33;;;5.65;;
52368;SDS011;38298;50.346;3.526;2024-02-21T01:06:38;21.23;;;5.50;;
52368;SDS011;38298;50.346;3.526;2024-02-21T01:09:07;16.80;;;5.57;;
52368;SDS011;38298;50.346;3.526;2024-02-21T01:11:33;22.00;;;6.50;;
52368;SDS011;38298;50.346;3.526;2024-02-21T01:13:59;18.95;;;5.93;;
52368;SDS011;38298;50.346;3.526;2024-02-21T01:16:26;18.50;;;5.45;;
52368;SDS011;38298;50.346;3.526;2024-02-21T01:18:52;23.08;;;6.10;;
52368;SDS011;38298;50.346;3.526;2024-02-21T01:21:18;23.13;;;6.10;;
52368;SDS011;38298;50.346;3.526;2024-02-21T01:23:44;12.00;;;5.93;;
52368;SDS011;38298;50.346;3.526;2024-02-21T01:26:10;21.15;;;6.40;;
52368;SDS011;38298;50.346;3.526;2024-02-21T01:28:38;14.23;;;5.55;;
52368;SDS011;38298;50.346;3.526;2024-02-21T01:31:06;15.98;;;6.20;;
52368;SDS011;38298;50.346;3.526;2024-02-21T01:33:32;21.60;;;5.85;;
52368;SDS011;38298;50.346;3.526;2024-02-21T01:36:01;21.25;;;7.38;;
52368;SDS011;38298;50.346;3.526;2024-02-21T01:38:27;13.73;;;5.95;;
52368;SDS011;38298;50.346;3.526;2024-02-21T01:40:53;21.55;;;6.47;;
52368;SDS011;38298;50.346;3.526;2024-02-21T01:43:20;17.80;;;6.20;;
52368;SDS011;38298;50.346;3.526;2024-02-21T01:45:46;25.23;;;7.00;;
52368;SDS011;38298;50.346;3.526;2024-02-21T01:48:14;19.05;;;5.88;;
52368;SDS011;38298;50.346;3.526;2024-02-21T01:50:41;23.38;;;6.50;;
52368;SDS011;38298;50.346;3.526;2024-02-21T01:53:07;21.38;;;6.55;;
52368;SDS011;38298;50.346;3.526;2024-02-21T01:55:33;24.77;;;6.53;;
52368;SDS011;38298;50.346;3.526;2024-02-21T01:58:00;16.83;;;6.20;;
52368;SDS011;38298;50.346;3.526;2024-02-21T02:00:26;23.55;;;5.95;;
52368;SDS011;38298;50.346;3.526;2024-02-21T02:02:52;14.25;;;5.82;;
52368;SDS011;38298;50.346;3.526;2024-02-21T02:05:19;17.95;;;6.03;;
52368;SDS011;38298;50.346;3.526;2024-02-21T02:07:46;20.52;;;6.10;;
52368;SDS011;38298;50.346;3.526;2024-02-21T02:10:12;17.38;;;5.80;;
52368;SDS011;38298;50.346;3.526;2024-02-21T02:12:38;17.05;;;6.05;;
52368;SDS011;38298;50.346;3.526;2024-02-21T02:15:04;19.90;;;7.10;;
52368;SDS011;38298;50.346;3.526;2024-02-21T02:17:30;21.63;;;6.20;;
52368;SDS011;38298;50.346;3.526;2024-02-21T02:19:56;21.73;;;6.50;;
52368;SDS011;38298;50.346;3.526;2024-02-21T02:22:23;19.70;;;7.00;;
52368;SDS011;38298;50.346;3.526;2024-02-21T02:24:51;21.95;;;7.05;;
52368;SDS011;38298;50.346;3.526;2024-02-21T02:27:17;17.88;;;6.35;;
52368;SDS011;38298;50.346;3.526;2024-02-21T02:29:43;19.75;;;6.70;;
52368;SDS011;38298;50.346;3.526;2024-02-21T02:32:09;16.45;;;6.20;;
52368;SDS011;38298;50.346;3.526;2024-02-21T02:34:35;14.50;;;6.22;;
52368;SDS011;38298;50.346;3.526;2024-02-21T02:37:01;21.00;;;6.43;;
52368;SDS011;38298;50.346;3.526;2024-02-21T02:39:27;19.08;;;5.93;;
52368;SDS011;38298;50.346;3.526;2024-02-21T02:41:53;22.70;;;6.07;;
52368;SDS011;38298;50.346;3.526;2024-02-21T02:44:19;17.27;;;6.22;;
52368;SDS011;38298;50.346;3.526;2024-02-21T02:46:45;16.80;;;6.03;;
52368;SDS011;38298;50.346;3.526;2024-02-21T02:49:11;22.92;;;6.38;;
52368;SDS011;38298;50.346;3.526;2024-02-21T02:51:40;16.50;;;6.20;;
52368;SDS011;38298;50.346;3.526;2024-02-21T02:54:07;21.42;;;6.57;;
52368;SDS011;38298;50.346;3.526;2024-02-21T02:56:33;15.23;;;5.45;;
52368;SDS011;38298;50.346;3.526;2024-02-21T02:58:59;28.25;;;6.68;;
52368;SDS011;38298;50.346;3.526;2024-02-21T03:01:25;17.92;;;6.93;;
52368;SDS011;38298;50.346;3.526;2024-02-21T03:03:52;19.60;;;7.55;;
52368;SDS011;38298;50.346;3.526;2024-02-21T03:06:18;22.52;;;6.28;;
52368;SDS011;38298;50.346;3.526;2024-02-21T03:08:44;15.70;;;5.93;;
52368;SDS011;38298;50.346;3.526;2024-02-21T03:11:10;19.63;;;6.30;;
52368;SDS011;38298;50.346;3.526;2024-02-21T03:13:36;21.17;;;7.28;;
52368;SDS011;38298;50.346;3.526;2024-02-21T03:16:02;21.30;;;7.18;;
52368;SDS011;38298;50.346;3.526;2024-02-21T03:18:28;22.10;;;7.30;;
52368;SDS011;38298;50.346;3.526;2024-02-21T03:20:54;20.38;;;7.00;;
52368;SDS011;38298;50.346;3.526;2024-02-21T03:23:20;19.27;;;6.82;;
52368;SDS011;38298;50.346;3.526;2024-02-21T03:25:46;20.63;;;7.18;;
52368;SDS011;38298;50.346;3.526;2024-02-21T03:28:12;25.70;;;7.68;;
52368;SDS011;38298;50.346;3.526;2024-02-21T03:30:38;20.48;;;7.13;;
52368;SDS011;38298;50.346;3.526;2024-02-21T03:33:04;21.77;;;7.13;;
52368;SDS011;38298;50.346;3.526;2024-02-21T03:35:30;20.77;;;7.38;;
52368;SDS011;38298;50.346;3.526;2024-02-21T03:37:57;19.90;;;6.47;;
52368;SDS011;38298;50.346;3.526;2024-02-21T03:40:23;19.20;;;7.50;;
52368;SDS011;38298;50.346;3.526;2024-02-21T03:42:48;21.70;;;7.22;;
52368;SDS011;38298;50.346;3.526;2024-02-21T03:45:14;27.17;;;8.23;;
52368;SDS011;38298;50.346;3.526;2024-02-21T03:47:40;19.90;;;7.60;;
52368;SDS011;38298;50.346;3.526;2024-02-21T03:50:07;19.05;;;7.50;;
52368;SDS011;38298;50.346;3.526;2024-02-21T03:52:33;23.08;;;7.22;;
52368;SDS011;38298;50.346;3.526;2024-02-21T03:54:59;22.17;;;7.15;;
52368;SDS011;38298;50.346;3.526;2024-02-21T03:57:25;20.88;;;7.20;;
52368;SDS011;38298;50.346;3.526;2024-02-21T03:59:51;25.10;;;8.43;;
52368;SDS011;38298;50.346;3.526;2024-02-21T04:02:17;12.15;;;6.75;;
52368;SDS011;38298;50.346;3.526;2024-02-21T04:04:43;18.73;;;6.70;;
52368;SDS011;38298;50.346;3.526;2024-02-21T04:07:13;15.93;;;6.95;;
52368;SDS011;38298;50.346;3.526;2024-02-21T04:09:39;20.55;;;6.90;;
52368;SDS011;38298;50.346;3.526;2024-02-21T04:12:05;17.13;;;6.75;;
52368;SDS011;38298;50.346;3.526;2024-02-21T04:14:31;21.48;;;6.93;;
52368;SDS011;38298;50.346;3.526;2024-02-21T04:16:57;16.63;;;6.63;;
52368;SDS011;38298;50.346;3.526;2024-02-21T04:19:23;15.95;;;7.45;;
52368;SDS011;38298;50.346;3.526;2024-02-21T04:21:49;17.85;;;7.07;;
52368;SDS011;38298;50.346;3.526;2024-02-21T04:24:15;15.50;;;7.13;;
52368;SDS011;38298;50.346;3.526;2024-02-21T04:26:41;21.02;;;7.00;;
52368;SDS011;38298;50.346;3.526;2024-02-21T04:29:08;17.10;;;7.18;;
52368;SDS011;38298;50.346;3.526;2024-02-21T04:31:35;16.02;;;7.30;;
52368;SDS011;38298;50.346;3.526;2024-02-21T04:34:01;17.08;;;7.25;;
52368;SDS011;38298;50.346;3.526;2024-02-21T04:36:27;20.00;;;6.97;;
52368;SDS011;38298;50.346;3.526;2024-02-21T04:38:53;21.05;;;7.63;;
52368;SDS011;38298;50.346;3.526;2024-02-21T04:41:19;15.30;;;7.38;;
52368;SDS011;38298;50.346;3.526;2024-02-21T04:43:46;23.50;;;7.68;;
52368;SDS011;38298;50.346;3.526;2024-02-21T04:46:13;16.58;;;7.32;;
52368;SDS011;38298;50.346;3.526;2024-02-21T04:48:39;25.73;;;8.20;;
52368;SDS011;38298;50.346;3.526;2024-02-21T04:51:05;19.95;;;7.13;;
52368;SDS011;38298;50.346;3.526;2024-02-21T04:53:31;16.98;;;7.57;;
52368;SDS011;38298;50.346;3.526;2024-02-21T04:55:57;17.00;;;7.13;;
52368;SDS011;38298;50.346;3.526;2024-02-21T04:58:23;18.95;;;7.47;;
52368;SDS011;38298;50.346;3.526;2024-02-21T05:00:49;17.70;;;7.60;;
52368;SDS011;38298;50.346;3.526;2024-02-21T05:03:15;18.10;;;7.45;;
52368;SDS011;38298;50.346;3.526;2024-02-21T05:05:41;19.35;;;7.97;;
52368;SDS011;38298;50.346;3.526;2024-02-21T05:08:09;16.77;;;8.27;;
52368;SDS011;38298;50.346;3.526;2024-02-21T05:10:35;17.73;;;7.95;;
52368;SDS011;38298;50.346;3.526;2024-02-21T05:13:01;17.65;;;8.27;;
52368;SDS011;38298;50.346;3.526;2024-02-21T05:15:27;21.95;;;8.23;;
52368;SDS011;38298;50.346;3.526;2024-02-21T05:17:53;18.08;;;8.80;;
52368;SDS011;38298;50.346;3.526;2024-02-21T05:20:20;20.92;;;7.90;;
52368;SDS011;38298;50.346;3.526;2024-02-21T05:22:46;16.80;;;8.13;;
52368;SDS011;38298;50.346;3.526;2024-02-21T05:25:12;21.45;;;9.10;;
52368;SDS011;38298;50.346;3.526;2024-02-21T05:27:38;21.40;;;9.85;;
52368;SDS011;38298;50.346;3.526;2024-02-21T05:30:04;19.20;;;8.70;;
52368;SDS011;38298;50.346;3.526;2024-02-21T05:32:31;19.30;;;8.60;;
52368;SDS011;38298;50.346;3.526;2024-02-21T05:34:57;23.98;;;9.07;;
52368;SDS011;38298;50.346;3.526;2024-02-21T05:37:23;27.30;;;8.70;;
52368;SDS011;38298;50.346;3.526;2024-02-21T05:39:49;25.00;;;9.40;;
52368;SDS011;38298;50.346;3.526;2024-02-21T05:42:16;22.50;;;9.40;;
52368;SDS011;38298;50.346;3.526;2024-02-21T05:44:42;25.70;;;9.10;;
52368;SDS011;38298;50.346;3.526;2024-02-21T05:47:08;18.65;;;8.82;;
52368;SDS011;38298;50.346;3.526;2024-02-21T05:49:35;22.60;;;8.43;;
52368;SDS011;38298;50.346;3.526;2024-02-21T05:52:01;18.80;;;9.15;;
52368;SDS011;38298;50.346;3.526;2024-02-21T05:54:27;15.68;;;7.75;;
52368;SDS011;38298;50.346;3.526;2024-02-21T05:56:53;26.33;;;8.32;;
52368;SDS011;38298;50.346;3.526;2024-02-21T05:59:19;18.60;;;7.80;;
52368;SDS011;38298;50.346;3.526;2024-02-21T06:01:45;28.20;;;8.65;;
52368;SDS011;38298;50.346;3.526;2024-02-21T06:04:21;18.48;;;8.68;;
52368;SDS011;38298;50.346;3.526;2024-02-21T06:06:47;23.60;;;8.60;;
52368;SDS011;38298;50.346;3.526;2024-02-21T06:09:13;21.63;;;7.55;;
52368;SDS011;38298;50.346;3.526;2024-02-21T06:11:39;16.42;;;7.57;;
52368;SDS011;38298;50.346;3.526;2024-02-21T06:14:05;17.33;;;7.45;;
52368;SDS011;38298;50.346;3.526;2024-02-21T06:16:31;15.73;;;7.55;;
52368;SDS011;38298;50.346;3.526;2024-02-21T06:18:57;22.75;;;7.13;;
52368;SDS011;38298;50.346;3.526;2024-02-21T06:21:23;14.32;;;6.70;;
52368;SDS011;38298;50.346;3.526;2024-02-21T06:23:49;13.15;;;6.68;;
52368;SDS011;38298;50.346;3.526;2024-02-21T06:26:21;21.90;;;7.35;;
52368;SDS011;38298;50.346;3.526;2024-02-21T06:28:47;19.05;;;7.00;;
52368;SDS011;38298;50.346;3.526;2024-02-21T06:31:13;21.27;;;7.20;;
52368;SDS011;38298;50.346;3.526;2024-02-21T06:33:40;17.02;;;7.50;;
52368;SDS011;38298;50.346;3.526;2024-02-21T06:36:06;20.17;;;7.53;;
52368;SDS011;38298;50.346;3.526;2024-02-21T06:38:32;14.65;;;6.25;;
52368;SDS011;38298;50.346;3.526;2024-02-21T06:40:59;17.08;;;6.25;;
52368;SDS011;38298;50.346;3.526;2024-02-21T06:43:25;17.58;;;7.35;;
52368;SDS011;38298;50.346;3.526;2024-02-21T06:45:52;16.77;;;6.32;;
52368;SDS011;38298;50.346;3.526;2024-02-21T06:48:19;18.42;;;6.65;;
52368;SDS011;38298;50.346;3.526;2024-02-21T06:50:45;17.45;;;6.70;;
52368;SDS011;38298;50.346;3.526;2024-02-21T06:53:11;16.77;;;6.50;;
52368;SDS011;38298;50.346;3.526;2024-02-21T06:55:37;17.17;;;6.93;;
52368;SDS011;38298;50.346;3.526;2024-02-21T06:58:03;14.85;;;6.18;;
52368;SDS011;38298;50.346;3.526;2024-02-21T07:00:29;18.40;;;5.85;;
52368;SDS011;38298;50.346;3.526;2024-02-21T07:02:55;14.02;;;5.57;;
52368;SDS011;38298;50.346;3.526;2024-02-21T07:05:21;19.38;;;5.85;;
52368;SDS011;38298;50.346;3.526;2024-02-21T07:07:47;17.67;;;5.30;;
52368;SDS011;38298;50.346;3.526;2024-02-21T07:10:13;15.18;;;5.70;;
52368;SDS011;38298;50.346;3.526;2024-02-21T07:12:39;14.82;;;5.30;;
52368;SDS011;38298;50.346;3.526;2024-02-21T07:15:08;15.43;;;5.03;;
52368;SDS011;38298;50.346;3.526;2024-02-21T07:17:34;13.80;;;4.55;;
52368;SDS011;38298;50.346;3.526;2024-02-21T07:20:00;19.42;;;5.25;;
52368;SDS011;38298;50.346;3.526;2024-02-21T07:22:26;10.82;;;4.20;;
52368;SDS011;38298;50.346;3.526;2024-02-21T07:24:52;11.43;;;4.80;;
52368;SDS011;38298;50.346;3.526;2024-02-21T07:27:18;23.23;;;5.45;;
52368;SDS011;38298;50.346;3.526;2024-02-21T07:29:44;9.63;;;4.93;;
52368;SDS011;38298;50.346;3.526;2024-02-21T07:32:12;10.32;;;5.10;;
52368;SDS011;38298;50.346;3.526;2024-02-21T07:34:38;13.55;;;4.53;;
52368;SDS011;38298;50.346;3.526;2024-02-21T07:37:04;14.23;;;4.88;;
52368;SDS011;38298;50.346;3.526;2024-02-21T07:39:30;11.48;;;4.75;;
52368;SDS011;38298;50.346;3.526;2024-02-21T07:41:56;8.35;;;4.05;;
52368;SDS011;38298;50.346;3.526;2024-02-21T07:44:22;9.18;;;4.25;;
52368;SDS011;38298;50.346;3.526;2024-02-21T07:46:48;13.38;;;4.07;;
52368;SDS011;38298;50.346;3.526;2024-02-21T07:49:14;10.40;;;4.00;;
52368;SDS011;38298;50.346;3.526;2024-02-21T07:51:40;11.18;;;4.80;;
52368;SDS011;38298;50.346;3.526;2024-02-21T07:54:07;10.48;;;4.07;;
52368;SDS011;38298;50.346;3.526;2024-02-21T07:56:33;11.00;;;4.40;;
52368;SDS011;38298;50.346;3.526;2024-02-21T07:58:59;12.63;;;4.38;;
52368;SDS011;38298;50.346;3.526;2024-02-21T08:01:25;10.93;;;4.28;;
52368;SDS011;38298;50.346;3.526;2024-02-21T08:03:51;10.98;;;4.45;;
52368;SDS011;38298;50.346;3.526;2024-02-21T08:06:17;14.50;;;4.55;;
52368;SDS011;38298;50.346;3.526;2024-02-21T08:08:43;15.80;;;4.07;;
52368;SDS011;38298;50.346;3.526;2024-02-21T08:11:09;11.40;;;4.07;;
52368;SDS011;38298;50.346;3.526;2024-02-21T08:13:35;12.50;;;4.65;;
52368;SDS011;38298;50.346;3.526;2024-02-21T08:16:01;10.02;;;4.18;;
52368;SDS011;38298;50.346;3.526;2024-02-21T08:18:28;16.55;;;4.22;;
52368;SDS011;38298;50.346;3.526;2024-02-21T08:20:54;13.98;;;4.13;;
52368;SDS011;38298;50.346;3.526;2024-02-21T08:23:22;8.13;;;3.88;;
52368;SDS011;38298;50.346;3.526;2024-02-21T08:25:48;16.33;;;4.18;;
52368;SDS011;38298;50.346;3.526;2024-02-21T08:28:14;12.70;;;3.75;;
52368;SDS011;38298;50.346;3.526;2024-02-21T08:30:40;9.40;;;3.95;;
52368;SDS011;38298;50.346;3.526;2024-02-21T08:33:09;14.27;;;4.15;;
52368;SDS011;38298;50.346;3.526;2024-02-21T08:35:35;9.80;;;3.78;;
52368;SDS011;38298;50.346;3.526;2024-02-21T08:38:01;9.80;;;3.85;;
52368;SDS011;38298;50.346;3.526;2024-02-21T08:40:27;11.43;;;3.65;;
52368;SDS011;38298;50.346;3.526;2024-02-21T08:42:53;11.45;;;3.40;;
52368;SDS011;38298;50.346;3.526;2024-02-21T08:45:19;13.52;;;4.05;;
52368;SDS011;38298;50.346;3.526;2024-02-21T08:47:45;11.32;;;3.80;;
52368;SDS011;38298;50.346;3.526;2024-02-21T08:50:11;8.40;;;3.75;;
52368;SDS011;38298;50.346;3.526;2024-02-21T08:52:37;9.93;;;3.90;;
52368;SDS011;38298;50.346;3.526;2024-02-21T08:55:03;10.57;;;4.25;;
52368;SDS011;38298;50.346;3.526;2024-02-21T08:57:29;9.30;;;3.50;;
52368;SDS011;38298;50.346;3.526;2024-02-21T09:00:01;13.63;;;3.63;;
52368;SDS011;38298;50.346;3.526;2024-02-21T09:02:34;10.52;;;3.80;;
52368;SDS011;38298;50.346;3.526;2024-02-21T09:05:00;9.30;;;3.75;;
52368;SDS011;38298;50.346;3.526;2024-02-21T09:07:26;7.15;;;3.13;;
52368;SDS011;38298;50.346;3.526;2024-02-21T09:09:52;6.88;;;3.33;;
52368;SDS011;38298;50.346;3.526;2024-02-21T09:12:18;11.18;;;3.85;;
52368;SDS011;38298;50.346;3.526;2024-02-21T09:14:44;13.68;;;3.80;;
52368;SDS011;38298;50.346;3.526;2024-02-21T09:17:13;10.60;;;3.55;;
52368;SDS011;38298;50.346;3.526;2024-02-21T09:19:42;7.03;;;3.15;;
52368;SDS011;38298;50.346;3.526;2024-02-21T09:22:08;10.60;;;3.55;;
52368;SDS011;38298;50.346;3.526;2024-02-21T09:24:34;14.15;;;3.30;;
52368;SDS011;38298;50.346;3.526;2024-02-21T09:27:00;10.23;;;2.78;;
52368;SDS011;38298;50.346;3.526;2024-02-21T09:29:26;8.52;;;3.50;;
52368;SDS011;38298;50.346;3.526;2024-02-21T09:31:52;12.55;;;3.20;;
52368;SDS011;38298;50.346;3.526;2024-02-21T09:34:18;13.05;;;3.53;;
52368;SDS011;38298;50.346;3.526;2024-02-21T09:36:44;17.88;;;3.90;;
52368;SDS011;38298;50.346;3.526;2024-02-21T09:39:10;15.88;;;3.78;;
52368;SDS011;38298;50.346;3.526;2024-02-21T09:41:39;7.03;;;3.08;;
52368;SDS011;38298;50.346;3.526;2024-02-21T09:44:09;6.03;;;3.13;;
52368;SDS011;38298;50.346;3.526;2024-02-21T09:51:37;8.85;;;3.05;;
52368;SDS011;38298;50.346;3.526;2024-02-21T09:54:05;13.75;;;3.75;;
52368;SDS011;38298;50.346;3.526;2024-02-21T09:56:31;19.05;;;4.05;;
52368;SDS011;38298;50.346;3.526;2024-02-21T09:58:57;8.70;;;3.53;;
52368;SDS011;38298;50.346;3.526;2024-02-21T10:01:23;11.15;;;3.35;;
52368;SDS011;38298;50.346;3.526;2024-02-21T10:03:49;9.80;;;3.40;;
52368;SDS011;38298;50.346;3.526;2024-02-21T10:06:15;11.00;;;3.25;;
52368;SDS011;38298;50.346;3.526;2024-02-21T10:08:41;10.85;;;4.03;;
52368;SDS011;38298;50.346;3.526;2024-02-21T10:11:07;11.75;;;3.10;;
52368;SDS011;38298;50.346;3.526;2024-02-21T10:13:34;9.00;;;3.72;;
52368;SDS011;38298;50.346;3.526;2024-02-21T10:16:03;9.65;;;3.55;;
52368;SDS011;38298;50.346;3.526;2024-02-21T10:18:30;6.15;;;2.90;;
52368;SDS011;38298;50.346;3.526;2024-02-21T10:21:05;13.80;;;3.38;;
52368;SDS011;38298;50.346;3.526;2024-02-21T10:23:44;12.50;;;3.33;;
52368;SDS011;38298;50.346;3.526;2024-02-21T10:26:10;6.97;;;2.75;;
52368;SDS011;38298;50.346;3.526;2024-02-21T10:28:37;8.23;;;3.17;;
52368;SDS011;38298;50.346;3.526;2024-02-21T10:33:33;11.48;;;3.15;;
52368;SDS011;38298;50.346;3.526;2024-02-21T10:36:08;4.43;;;2.72;;
52368;SDS011;38298;50.346;3.526;2024-02-21T10:38:38;5.93;;;2.53;;
52368;SDS011;38298;50.346;3.526;2024-02-21T10:41:05;5.93;;;2.72;;
52368;SDS011;38298;50.346;3.526;2024-02-21T10:43:33;8.88;;;2.78;;
52368;SDS011;38298;50.346;3.526;2024-02-21T10:46:05;8.68;;;2.72;;
52368;SDS011;38298;50.346;3.526;2024-02-21T10:48:33;4.53;;;2.45;;
52368;SDS011;38298;50.346;3.526;2024-02-21T10:56:18;10.35;;;2.13;;
52368;SDS011;38298;50.346;3.526;2024-02-21T10:58:48;7.03;;;2.55;;
52368;SDS011;38298;50.346;3.526;2024-02-21T11:01:15;10.40;;;2.78;;
52368;SDS011;38298;50.346;3.526;2024-02-21T11:03:43;5.43;;;2.60;;
52368;SDS011;38298;50.346;3.526;2024-02-21T11:06:10;7.97;;;2.70;;
52368;SDS011;38298;50.346;3.526;2024-02-21T11:08:37;6.72;;;3.10;;
52368;SDS011;38298;50.346;3.526;2024-02-21T11:11:04;7.43;;;2.35;;
52368;SDS011;38298;50.346;3.526;2024-02-21T11:13:31;5.00;;;2.13;;
52368;SDS011;38298;50.346;3.526;2024-02-21T11:18:33;8.98;;;3.03;;
52368;SDS011;38298;50.346;3.526;2024-02-21T11:20:59;12.32;;;2.80;;
52368;SDS011;38298;50.346;3.526;2024-02-21T11:23:28;6.50;;;2.70;;
52368;SDS011;38298;50.346;3.526;2024-02-21T11:26:39;4.28;;;2.40;;
52368;SDS011;38298;50.346;3.526;2024-02-21T11:28:40;9.65;;;2.80;;
52368;SDS011;38298;50.346;3.526;2024-02-21T11:31:11;4.13;;;2.40;;
52368;SDS011;38298;50.346;3.526;2024-02-21T11:33:41;6.40;;;2.22;;
52368;SDS011;38298;50.346;3.526;2024-02-21T11:36:10;12.85;;;3.28;;
52368;SDS011;38298;50.346;3.526;2024-02-21T11:38:36;6.07;;;2.78;;
52368;SDS011;38298;50.346;3.526;2024-02-21T11:41:02;7.53;;;2.60;;
52368;SDS011;38298;50.346;3.526;2024-02-21T11:43:28;7.93;;;2.50;;
52368;SDS011;38298;50.346;3.526;2024-02-21T11:45:58;9.82;;;2.63;;
52368;SDS011;38298;50.346;3.526;2024-02-21T11:50:54;8.27;;;3.22;;
52368;SDS011;38298;50.346;3.526;2024-02-21T11:53:20;7.55;;;2.50;;
52368;SDS011;38298;50.346;3.526;2024-02-21T11:55:47;8.05;;;3.10;;
52368;SDS011;38298;50.346;3.526;2024-02-21T11:58:13;8.38;;;3.17;;
52368;SDS011;38298;50.346;3.526;2024-02-21T12:00:39;11.55;;;3.28;;
52368;SDS011;38298;50.346;3.526;2024-02-21T12:03:05;9.73;;;2.60;;
52368;SDS011;38298;50.346;3.526;2024-02-21T12:05:31;5.65;;;3.05;;
52368;SDS011;38298;50.346;3.526;2024-02-21T12:07:57;4.72;;;2.70;;
52368;SDS011;38298;50.346;3.526;2024-02-21T12:10:24;11.20;;;3.42;;
52368;SDS011;38298;50.346;3.526;2024-02-21T12:12:52;7.53;;;2.85;;
52368;SDS011;38298;50.346;3.526;2024-02-21T12:15:23;8.02;;;2.78;;
52368;SDS011;38298;50.346;3.526;2024-02-21T12:17:49;7.68;;;3.33;;
52368;SDS011;38298;50.346;3.526;2024-02-21T12:20:16;5.95;;;2.92;;
52368;SDS011;38298;50.346;3.526;2024-02-21T12:22:43;8.85;;;3.45;;
52368;SDS011;38298;50.346;3.526;2024-02-21T12:25:18;8.55;;;3.10;;
52368;SDS011;38298;50.346;3.526;2024-02-21T12:27:48;5.22;;;2.70;;
52368;SDS011;38298;50.346;3.526;2024-02-21T12:30:17;11.32;;;3.63;;
52368;SDS011;38298;50.346;3.526;2024-02-21T12:32:43;12.70;;;3.83;;
52368;SDS011;38298;50.346;3.526;2024-02-21T12:35:09;13.02;;;2.85;;
52368;SDS011;38298;50.346;3.526;2024-02-21T12:37:35;8.35;;;3.15;;
52368;SDS011;38298;50.346;3.526;2024-02-21T12:40:03;5.55;;;2.78;;
52368;SDS011;38298;50.346;3.526;2024-02-21T12:42:31;10.23;;;3.30;;
52368;SDS011;38298;50.346;3.526;2024-02-21T12:44:58;6.70;;;3.38;;
52368;SDS011;38298;50.346;3.526;2024-02-21T12:47:24;11.07;;;3.53;;
52368;SDS011;38298;50.346;3.526;2024-02-21T12:49:51;8.40;;;3.60;;
52368;SDS011;38298;50.346;3.526;2024-02-21T12:52:18;6.90;;;3.03;;
52368;SDS011;38298;50.346;3.526;2024-02-21T12:54:44;6.18;;;3.10;;
52368;SDS011;38298;50.346;3.526;2024-02-21T12:57:10;8.15;;;3.50;;
52368;SDS011;38298;50.346;3.526;2024-02-21T12:59:36;8.85;;;3.38;;
52368;SDS011;38298;50.346;3.526;2024-02-21T13:02:02;7.35;;;3.10;;
52368;SDS011;38298;50.346;3.526;2024-02-21T13:04:28;6.63;;;3.00;;
52368;SDS011;38298;50.346;3.526;2024-02-21T13:06:54;6.97;;;3.40;;
52368;SDS011;38298;50.346;3.526;2024-02-21T13:09:23;8.00;;;3.25;;
52368;SDS011;38298;50.346;3.526;2024-02-21T13:11:49;8.23;;;2.83;;
52368;SDS011;38298;50.346;3.526;2024-02-21T13:14:16;9.15;;;3.50;;
52368;SDS011;38298;50.346;3.526;2024-02-21T13:16:42;7.78;;;3.30;;
52368;SDS011;38298;50.346;3.526;2024-02-21T13:19:08;9.23;;;3.25;;
52368;SDS011;38298;50.346;3.526;2024-02-21T13:21:35;8.73;;;3.80;;
52368;SDS011;38298;50.346;3.526;2024-02-21T13:24:01;7.95;;;3.33;;
52368;SDS011;38298;50.346;3.526;2024-02-21T13:26:28;4.25;;;2.95;;
52368;SDS011;38298;50.346;3.526;2024-02-21T13:28:54;10.25;;;3.78;;
52368;SDS011;38298;50.346;3.526;2024-02-21T13:31:20;7.65;;;3.13;;
52368;SDS011;38298;50.346;3.526;2024-02-21T13:33:46;4.90;;;3.20;;
52368;SDS011;38298;50.346;3.526;2024-02-21T13:36:12;7.53;;;3.50;;
52368;SDS011;38298;50.346;3.526;2024-02-21T13:38:38;8.30;;;3.80;;
52368;SDS011;38298;50.346;3.526;2024-02-21T13:41:05;7.38;;;3.80;;
52368;SDS011;38298;50.346;3.526;2024-02-21T13:43:33;6.38;;;3.45;;
52368;SDS011;38298;50.346;3.526;2024-02-21T13:46:00;9.18;;;4.03;;
52368;SDS011;38298;50.346;3.526;2024-02-21T13:48:27;6.35;;;3.45;;
52368;SDS011;38298;50.346;3.526;2024-02-21T13:50:55;10.45;;;3.30;;
52368;SDS011;38298;50.346;3.526;2024-02-21T13:53:21;11.82;;;3.35;;
52368;SDS011;38298;50.346;3.526;2024-02-21T13:55:48;12.05;;;3.47;;
52368;SDS011;38298;50.346;3.526;2024-02-21T13:58:15;5.78;;;3.47;;
52368;SDS011;38298;50.346;3.526;2024-02-21T14:00:41;8.77;;;3.75;;
52368;SDS011;38298;50.346;3.526;2024-02-21T14:03:07;10.32;;;3.75;;
52368;SDS011;38298;50.346;3.526;2024-02-21T14:05:33;9.48;;;3.65;;
52368;SDS011;38298;50.346;3.526;2024-02-21T14:08:02;13.90;;;3.83;;
52368;SDS011;38298;50.346;3.526;2024-02-21T14:10:30;9.02;;;3.47;;
52368;SDS011;38298;50.346;3.526;2024-02-21T14:12:56;8.63;;;3.75;;
52368;SDS011;38298;50.346;3.526;2024-02-21T14:15:22;7.80;;;3.50;;
52368;SDS011;38298;50.346;3.526;2024-02-21T14:17:50;9.00;;;3.78;;
52368;SDS011;38298;50.346;3.526;2024-02-21T14:20:16;8.20;;;3.40;;
52368;SDS011;38298;50.346;3.526;2024-02-21T14:22:42;9.90;;;3.97;;
52368;SDS011;38298;50.346;3.526;2024-02-21T14:25:08;4.85;;;3.28;;
52368;SDS011;38298;50.346;3.526;2024-02-21T14:27:34;12.20;;;3.72;;
52368;SDS011;38298;50.346;3.526;2024-02-21T14:30:03;7.93;;;3.53;;
52368;SDS011;38298;50.346;3.526;2024-02-21T14:32:29;10.63;;;3.35;;
52368;SDS011;38298;50.346;3.526;2024-02-21T14:34:55;10.63;;;3.28;;
52368;SDS011;38298;50.346;3.526;2024-02-21T14:37:21;10.45;;;3.92;;
52368;SDS011;38298;50.346;3.526;2024-02-21T14:39:47;8.23;;;3.50;;
52368;SDS011;38298;50.346;3.526;2024-02-21T14:42:13;11.60;;;3.88;;
52368;SDS011;38298;50.346;3.526;2024-02-21T14:44:39;9.48;;;3.53;;
52368;SDS011;38298;50.346;3.526;2024-02-21T14:47:06;11.93;;;4.10;;
52368;SDS011;38298;50.346;3.526;2024-02-21T14:49:32;10.65;;;4.35;;
52368;SDS011;38298;50.346;3.526;2024-02-21T14:51:58;6.93;;;3.50;;